Time;durP1;ratioP1;P1;durP2;ratioP2;P2;SDS_P1;SDS_P2;PMS_P1;PMS_P2;Temp;Humidity;BMP_temperature;BMP_pressure;BME280_temperature;BME280_humidity;BME280_pressure;Samples;Min_cycle;Max_cycle;Signal;HPM_P1;HPM_P2
2023/04/29 00:03:37;;;;;;;19.77;9.10;;;;;;;13.06;60.61;99690.88;7764977;32;39298;-90
2023/04/29 00:07:54;;;;;;;18.23;8.57;;;;;;;13.00;60.25;99681.91;7764539;32;40829;-88
2023/04/29 00:12:10;;;;;;;15.65;7.65;;;;;;;12.91;59.93;99672.72;7789350;32;37610;-89
2023/04/29 00:16:27;;;;;;;17.90;8.68;;;;;;;13.08;59.06;99673.06;7791557;32;37290;-88
2023/04/29 00:20:43;;;;;;;14.05;7.82;;;;;;;13.15;58.57;99668.03;7791006;32;39296;-89
2023/04/29 00:24:59;;;;;;;17.50;7.65;;;;;;;12.80;60.07;99671.16;7791580;32;39588;-88
2023/04/29 00:29:16;;;;;;;14.27;7.97;;;;;;;13.03;59.24;99667.63;7794102;32;37777;-88
2023/04/29 00:33:32;;;;;;;13.27;7.45;;;;;;;12.77;60.02;99675.31;7793909;32;37829;-88
2023/04/29 00:37:48;;;;;;;15.68;7.78;;;;;;;12.65;60.14;99680.37;7794257;32;39474;-88
2023/04/29 00:42:05;;;;;;;12.77;7.00;;;;;;;12.93;59.13;99678.69;7793712;32;40829;-90
2023/04/29 00:46:21;;;;;;;13.95;7.22;;;;;;;12.93;58.52;99670.50;7794245;32;37848;-88
2023/04/29 00:50:38;;;;;;;14.95;7.30;;;;;;;13.03;58.05;99669.56;7794173;32;37230;-89
2023/04/29 00:54:55;;;;;;;12.37;6.62;;;;;;;13.10;57.56;99670.84;7793837;32;40236;-88
2023/04/29 00:59:14;;;;;;;13.77;7.05;;;;;;;13.23;57.18;99679.44;7792574;32;39950;-88
2023/04/29 01:03:31;;;;;;;12.05;7.32;;;;;;;13.10;57.37;99675.50;7793958;32;37779;-88
2023/04/29 01:08:05;;;;;;;13.35;7.10;;;;;;;13.13;57.67;99672.19;7793147;32;36776;-89
2023/04/29 01:12:35;;;;;;;12.90;6.95;;;;;;;13.06;59.20;99664.34;7794420;32;39976;-87
2023/04/29 01:16:55;;;;;;;12.25;7.30;;;;;;;13.27;58.56;99653.13;7793655;32;40748;-88
2023/04/29 01:21:12;;;;;;;12.18;7.35;;;;;;;13.13;58.31;99647.56;7787528;32;37724;-82
2023/04/29 01:25:28;;;;;;;11.70;7.15;;;;;;;12.99;58.98;99647.44;7779280;32;37430;-80
2023/04/29 01:30:05;;;;;;;10.73;6.68;;;;;;;12.92;58.83;99647.78;7781322;32;38929;-81
2023/04/29 01:34:29;;;;;;;12.13;6.78;;;;;;;12.84;59.39;99642.97;7776571;32;40263;-86
2023/04/29 01:39:10;;;;;;;12.00;7.07;;;;;;;12.87;59.17;99645.13;7773903;32;38039;-83
2023/04/29 01:43:29;;;;;;;12.88;7.15;;;;;;;12.70;59.81;99651.03;7779016;32;37414;-81
2023/04/29 01:47:46;;;;;;;12.85;7.28;;;;;;;12.87;59.07;99634.16;7779609;32;39858;-82
2023/04/29 01:52:02;;;;;;;16.20;7.28;;;;;;;12.83;59.49;99659.66;7779154;32;40343;-82
2023/04/29 01:56:19;;;;;;;17.90;7.43;;;;;;;12.83;59.16;99659.66;7776076;32;38309;-85
2023/04/29 02:00:36;;;;;;;15.43;7.70;;;;;;;12.83;58.79;99643.25;7775244;32;37047;-88
2023/04/29 02:04:53;;;;;;;14.93;7.47;;;;;;;12.63;58.86;99647.84;7775318;32;39446;-82
2023/04/29 02:09:09;;;;;;;12.50;6.32;;;;;;;12.66;58.39;99660.09;7772030;32;40317;-84
2023/04/29 02:13:26;;;;;;;12.37;6.57;;;;;;;12.70;57.84;99653.78;7774060;32;38820;-82
2023/04/29 02:22:07;;;;;;;10.68;5.53;;;;;;;12.47;55.61;99651.81;7732197;27;20093;-87
2023/04/29 02:26:23;;;;;;;8.43;5.53;;;;;;;12.72;54.48;99643.34;7722894;32;39829;-82
2023/04/29 02:30:40;;;;;;;9.50;5.68;;;;;;;12.81;53.94;99637.25;7725739;32;38377;-81
2023/04/29 02:34:56;;;;;;;14.43;5.32;;;;;;;12.82;51.63;99622.47;7725551;32;38143;-81
2023/04/29 02:39:13;;;;;;;9.82;5.53;;;;;;;12.87;51.54;99628.69;7725498;32;39618;-82
2023/04/29 02:43:30;;;;;;;10.13;5.68;;;;;;;12.95;51.01;99627.22;7724130;32;40390;-82
2023/04/29 02:47:46;;;;;;;9.40;5.55;;;;;;;13.12;52.99;99632.22;7723659;32;37962;-83
2023/04/29 02:52:03;;;;;;;11.15;5.45;;;;;;;13.01;51.78;99641.69;7726206;32;37310;-81
2023/04/29 02:56:20;;;;;;;9.82;5.28;;;;;;;13.08;51.15;99640.22;7726429;32;40441;-84
2023/04/29 03:00:36;;;;;;;11.35;5.20;;;;;;;12.76;49.57;99643.59;7722666;32;40167;-89
2023/04/29 03:04:52;;;;;;;12.37;5.72;;;;;;;13.10;51.58;99638.00;7723670;32;38124;-82
2023/04/29 03:09:09;;;;;;;7.95;5.18;;;;;;;12.97;50.40;99636.00;7724479;32;37582;-81
2023/04/29 03:13:25;;;;;;;12.80;6.28;;;;;;;13.00;53.02;99629.91;7722092;32;39800;-83
2023/04/29 03:17:41;;;;;;;14.00;6.20;;;;;;;12.74;54.38;99624.72;7744801;32;40202;-89
2023/04/29 03:21:58;;;;;;;9.40;5.53;;;;;;;12.75;53.32;99631.84;7745113;32;37804;-86
2023/04/29 03:26:14;;;;;;;11.85;5.90;;;;;;;12.63;53.42;99627.87;7747082;32;38199;-88
2023/04/29 03:30:30;;;;;;;12.57;5.90;;;;;;;12.76;53.88;99629.91;7746923;32;39261;-89
2023/04/29 03:34:48;;;;;;;9.88;5.90;;;;;;;12.74;55.13;99630.19;7745261;32;39968;-89
2023/04/29 03:39:04;;;;;;;12.15;6.55;;;;;;;12.70;53.40;99631.09;7747890;32;37937;-84
2023/04/29 03:43:20;;;;;;;10.65;5.47;;;;;;;12.82;53.79;99630.69;7750400;32;37446;-85
2023/04/29 03:47:37;;;;;;;9.77;6.62;;;;;;;12.75;53.42;99645.50;7749785;32;39809;-84
2023/04/29 03:51:53;;;;;;;10.48;6.62;;;;;;;12.89;55.42;99653.03;7749781;32;40103;-88
2023/04/29 03:56:10;;;;;;;13.82;7.65;;;;;;;12.77;56.46;99651.50;7749467;32;38736;-84
2023/04/29 04:00:29;;;;;;;12.88;7.30;;;;;;;12.67;57.56;99651.59;7751060;32;37256;-86
2023/04/29 04:04:46;;;;;;;12.95;7.00;;;;;;;12.67;57.70;99651.59;7749483;32;39625;-90
2023/04/29 04:09:03;;;;;;;10.40;6.93;;;;;;;12.61;57.92;99657.41;7750336;32;40061;-86
2023/04/29 04:13:19;;;;;;;11.32;6.47;;;;;;;12.72;57.27;99658.94;7750289;32;38294;-90
2023/04/29 04:17:35;;;;;;;10.57;5.62;;;;;;;12.49;56.66;99661.38;7733837;32;37882;-84
2023/04/29 04:21:52;;;;;;;10.93;6.37;;;;;;;12.54;56.12;99668.72;7722083;32;40449;-81
2023/04/29 04:26:08;;;;;;;12.27;5.82;;;;;;;12.77;55.43;99662.44;7722991;32;40161;-85
2023/04/29 04:30:24;;;;;;;11.45;5.62;;;;;;;12.26;55.14;99673.84;7721463;32;38112;-82
2023/04/29 04:34:41;;;;;;;12.30;6.70;;;;;;;12.72;52.59;99659.75;7720181;32;35784;-87
2023/04/29 04:38:57;;;;;;;12.57;6.30;;;;;;;12.59;54.31;99665.94;7748161;32;39619;-84
2023/04/29 04:43:13;;;;;;;10.85;5.75;;;;;;;12.57;54.56;99663.47;7748255;32;41024;-88
2023/04/29 04:47:30;;;;;;;9.95;5.37;;;;;;;12.65;53.71;99656.56;7746026;32;37770;-89
2023/04/29 04:51:46;;;;;;;11.43;5.82;;;;;;;12.59;53.35;99661.28;7748297;32;37216;-82
2023/04/29 04:56:03;;;;;;;11.00;5.82;;;;;;;12.68;53.45;99653.25;7748116;32;39523;-84
2023/04/29 05:00:20;;;;;;;8.98;5.28;;;;;;;12.61;54.45;99655.50;7748256;32;40102;-86
2023/04/29 05:04:36;;;;;;;9.63;5.30;;;;;;;12.89;53.39;99656.56;7748604;32;38157;-83
2023/04/29 05:08:52;;;;;;;8.95;5.80;;;;;;;12.59;54.48;99660.47;7743792;32;37281;-88
2023/04/29 05:13:08;;;;;;;10.07;5.70;;;;;;;12.84;54.22;99653.09;7723284;32;39610;-88
2023/04/29 05:17:24;;;;;;;10.13;6.20;;;;;;;12.91;54.44;99643.41;7723471;32;40106;-88
2023/04/29 05:21:41;;;;;;;10.23;5.57;;;;;;;12.66;52.37;99654.62;7724329;32;38083;-88
2023/04/29 05:25:57;;;;;;;12.48;5.90;;;;;;;12.59;53.71;99650.34;7725241;32;37330;-81
2023/04/29 05:30:14;;;;;;;12.30;5.95;;;;;;;12.76;53.89;99655.38;7724334;32;39551;-83
2023/04/29 05:34:30;;;;;;;11.23;5.70;;;;;;;12.99;53.69;99658.41;7724145;32;40153;-86
2023/04/29 05:38:47;;;;;;;9.73;5.65;;;;;;;12.92;53.09;99668.88;7724486;32;38389;-84
2023/04/29 05:43:03;;;;;;;9.35;5.78;;;;;;;12.86;54.35;99672.75;7725303;32;37303;-82
2023/04/29 05:47:19;;;;;;;10.77;5.80;;;;;;;12.88;54.16;99670.53;7741172;32;40529;-86
2023/04/29 05:51:36;;;;;;;11.18;5.62;;;;;;;12.86;54.84;99675.50;7730254;32;40179;-87
2023/04/29 05:55:52;;;;;;;10.73;5.40;;;;;;;12.87;54.80;99677.12;7717500;32;38757;-87
2023/04/29 06:00:09;;;;;;;15.10;5.85;;;;;;;12.90;55.33;99677.38;7714779;32;37857;-85
2023/04/29 06:04:26;;;;;;;15.45;5.85;;;;;;;12.77;54.88;99681.59;7717997;32;39688;-88
2023/04/29 06:08:42;;;;;;;12.88;5.75;;;;;;;13.03;54.40;99675.84;7713713;32;40265;-89
2023/04/29 06:12:59;;;;;;;12.57;6.15;;;;;;;13.11;53.81;99672.47;7712148;32;38033;-89
2023/04/29 06:17:15;;;;;;;11.18;5.65;;;;;;;12.96;54.63;99675.38;7714036;32;37889;-86
2023/04/29 06:21:32;;;;;;;9.02;5.57;;;;;;;13.24;53.43;99670.16;7714010;32;39309;-88
2023/04/29 06:25:48;;;;;;;11.23;5.80;;;;;;;13.17;53.50;99675.16;7729440;32;40069;-87
2023/04/29 06:30:08;;;;;;;10.68;5.78;;;;;;;13.17;53.91;99675.97;7738678;32;37859;-87
2023/04/29 06:34:24;;;;;;;13.10;6.53;;;;;;;13.19;53.31;99684.69;7738865;32;37085;-88
2023/04/29 06:38:41;;;;;;;11.45;5.55;;;;;;;13.11;53.39;99677.97;7738561;32;38847;-85
2023/04/29 06:42:57;;;;;;;12.25;5.82;;;;;;;13.06;53.00;99680.75;7735365;32;40048;-87
2023/04/29 06:47:14;;;;;;;23.92;11.77;;;;;;;12.95;54.48;99679.22;7734889;32;37505;-86
2023/04/29 06:51:31;;;;;;;16.90;8.80;;;;;;;13.14;52.80;99679.28;7733967;32;36879;-84
2023/04/29 06:55:47;;;;;;;10.55;6.35;;;;;;;13.07;52.49;99682.41;7734022;32;39766;-85
2023/04/29 07:00:04;;;;;;;10.27;5.60;;;;;;;13.31;52.45;99682.41;7736697;32;40516;-85
2023/04/29 07:04:20;;;;;;;15.75;5.95;;;;;;;13.21;52.28;99685.25;7737957;32;37907;-84
2023/04/29 07:08:37;;;;;;;12.32;6.25;;;;;;;13.14;52.82;99687.50;7737829;32;37251;-84
2023/04/29 07:12:53;;;;;;;13.57;5.47;;;;;;;13.31;52.93;99689.75;7737836;32;39229;-71
2023/04/29 07:17:09;;;;;;;12.05;6.15;;;;;;;13.38;53.43;99682.03;7737510;32;39643;-83
2023/04/29 07:21:30;;;;;;;11.45;5.90;;;;;;;13.78;51.64;99684.53;7737456;32;37999;-82
2023/04/29 07:25:46;;;;;;;13.35;6.50;;;;;;;13.86;51.39;99678.38;7737591;32;37869;-82
2023/04/29 07:30:03;;;;;;;10.77;6.35;;;;;;;14.02;50.14;99679.81;7737527;32;40103;-84
2023/04/29 07:34:20;;;;;;;13.43;6.40;;;;;;;14.04;50.27;99679.50;7736009;32;39692;-83
2023/04/29 07:38:36;;;;;;;10.45;6.47;;;;;;;13.85;50.93;99688.53;7737280;32;38151;-83
2023/04/29 07:42:52;;;;;;;11.88;6.53;;;;;;;13.99;51.07;99696.03;7737135;32;37944;-82
2023/04/29 07:47:09;;;;;;;16.48;7.07;;;;;;;14.00;50.70;99703.13;7737171;32;40153;-82
2023/04/29 07:51:27;;;;;;;12.10;6.20;;;;;;;14.56;49.78;99704.97;7737054;32;40005;-82
2023/04/29 07:55:44;;;;;;;11.93;6.60;;;;;;;14.53;50.23;99704.78;7736857;32;37986;-83
2023/04/29 08:00:00;;;;;;;8.73;5.90;;;;;;;14.42;49.86;99715.09;7734867;32;37111;-82
2023/04/29 08:04:16;;;;;;;11.73;5.70;;;;;;;14.17;49.66;99714.38;7734832;32;39220;-82
2023/04/29 08:08:33;;;;;;;10.80;6.55;;;;;;;14.47;49.93;99715.03;7735314;32;40196;-82
2023/04/29 08:12:49;;;;;;;10.70;6.55;;;;;;;14.55;48.92;99719.81;7733492;32;38389;-82
2023/04/29 08:17:07;;;;;;;13.38;7.00;;;;;;;14.55;49.19;99711.56;7734469;32;37174;-82
2023/04/29 08:21:23;;;;;;;12.50;6.80;;;;;;;14.57;49.37;99716.75;7734205;32;39538;-82
2023/04/29 08:25:42;;;;;;;11.80;5.87;;;;;;;14.65;49.22;99724.34;7734276;32;40555;-82
2023/04/29 08:29:58;;;;;;;11.65;6.55;;;;;;;14.38;49.95;99723.09;7731382;32;38659;-82
2023/04/29 08:34:15;;;;;;;10.55;5.82;;;;;;;13.98;49.38;99725.34;7734684;32;37205;-83
2023/04/29 08:38:31;;;;;;;13.10;5.78;;;;;;;14.18;48.92;99726.19;7735747;32;39256;-82
2023/04/29 08:42:48;;;;;;;14.57;5.82;;;;;;;14.28;51.34;99721.34;7735742;32;39746;-83
2023/04/29 08:47:05;;;;;;;10.90;5.97;;;;;;;14.33;48.97;99728.69;7736499;32;38553;-84
2023/04/29 08:51:21;;;;;;;11.32;6.10;;;;;;;14.63;48.17;99732.06;7738311;32;37155;-84
2023/04/29 08:55:45;;;;;;;11.20;5.40;;;;;;;15.06;46.82;99726.37;7739549;32;40404;-83
2023/04/29 09:00:02;;;;;;;19.30;9.35;;;;;;;15.02;46.99;99731.66;7739302;32;39024;-83
2023/04/29 09:04:24;;;;;;;10.88;6.20;;;;;;;15.38;46.30;99728.22;7737995;32;37807;-82
2023/04/29 09:08:41;;;;;;;10.77;5.53;;;;;;;15.32;46.39;99729.44;7739372;32;37927;-83
2023/04/29 09:12:57;;;;;;;11.35;5.72;;;;;;;15.20;46.89;99732.66;7739245;32;39291;-82
2023/04/29 09:17:15;;;;;;;12.07;6.35;;;;;;;15.34;45.03;99732.69;7739149;32;39858;-83
2023/04/29 09:21:32;;;;;;;26.87;12.65;;;;;;;15.34;44.18;99729.94;7738818;32;37847;-82
2023/04/29 09:25:57;;;;;;;19.98;12.07;;;;;;;15.48;44.31;99734.63;7735866;32;37235;-84
2023/04/29 09:30:15;;;;;;;10.73;5.65;;;;;;;15.29;44.69;99730.03;7729463;32;39842;-84
2023/04/29 09:34:39;;;;;;;11.18;5.37;;;;;;;15.70;44.80;99731.94;7728768;32;39778;-83
2023/04/29 09:38:56;;;;;;;7.85;5.07;;;;;;;16.08;44.28;99717.13;7729368;32;37648;-83
2023/04/29 09:43:17;;;;;;;9.50;5.60;;;;;;;16.09;43.60;99711.34;7728643;32;37877;-83
2023/04/29 09:47:33;;;;;;;10.23;5.53;;;;;;;16.31;43.52;99720.72;7728777;32;40536;-83
2023/04/29 09:52:01;;;;;;;8.32;4.87;;;;;;;16.57;43.08;99717.34;7728835;32;40116;-84
2023/04/29 09:56:17;;;;;;;10.52;5.78;;;;;;;16.38;42.46;99718.34;7727691;32;38016;-83
2023/04/29 10:00:35;;;;;;;10.68;5.30;;;;;;;16.61;42.01;99716.41;7729002;32;37067;-83
2023/04/29 10:04:56;;;;;;;9.50;5.28;;;;;;;16.82;42.22;99707.62;7727388;32;39230;-83
2023/04/29 10:09:17;;;;;;;9.82;5.40;;;;;;;17.32;41.75;99703.84;7720568;32;39965;-83
2023/04/29 10:13:37;;;;;;;9.23;4.65;;;;;;;17.56;41.04;99695.16;7733187;32;37516;-82
2023/04/29 10:18:14;;;;;;;11.65;5.15;;;;;;;17.79;41.24;99696.63;7738791;32;37630;-82
2023/04/29 10:22:51;;;;;;;7.97;5.03;;;;;;;17.82;39.33;99692.44;7738816;32;39190;-82
2023/04/29 10:27:11;;;;;;;10.82;5.68;;;;;;;18.69;37.38;99672.25;7738571;32;40845;-82
2023/04/29 10:31:29;;;;;;;7.57;4.55;;;;;;;18.98;37.12;99663.25;7738560;32;38541;-82
2023/04/29 10:35:47;;;;;;;11.52;5.60;;;;;;;19.20;34.89;99662.19;7737211;32;37054;-82
2023/04/29 10:40:27;;;;;;;13.88;6.15;;;;;;;19.46;37.08;99659.28;7738472;32;40034;-82
2023/04/29 10:45:21;;;;;;;8.63;4.55;;;;;;;19.77;35.88;99655.34;7738337;32;40727;-82
2023/04/29 10:49:37;;;;;;;9.55;4.37;;;;;;;19.53;34.44;99642.16;7738196;32;37958;-82
2023/04/29 10:54:00;;;;;;;11.30;4.55;;;;;;;19.35;33.99;99638.72;7738221;32;38384;-84
2023/04/29 10:58:43;;;;;;;9.15;4.15;;;;;;;19.52;34.37;99629.47;7738155;32;40123;-83
2023/04/29 11:03:01;;;;;;;;;;;;;;;19.69;34.68;99628.53;7729752;32;40377;-82
2023/04/29 11:07:28;;;;;;;7.35;4.55;;;;;;;19.24;35.38;99629.97;7724461;32;38892;-84
2023/04/29 11:11:48;;;;;;;9.35;5.10;;;;;;;19.33;34.77;99621.63;7720509;32;37784;-83
2023/04/29 11:16:09;;;;;;;11.30;4.50;;;;;;;19.10;35.82;99618.34;7721388;32;40126;-85
2023/04/29 11:20:26;;;;;;;7.62;4.20;;;;;;;19.37;34.76;99622.59;7737267;32;39081;-83
2023/04/29 11:24:53;;;;;;;8.63;4.55;;;;;;;19.21;36.18;99621.53;7737649;32;37886;-83
2023/04/29 11:29:10;;;;;;;9.05;4.95;;;;;;;19.36;35.72;99622.91;7719885;32;37862;-84
2023/04/29 11:33:27;;;;;;;8.77;4.60;;;;;;;18.84;36.59;99627.56;7720874;32;40174;-86
2023/04/29 11:37:45;;;;;;;9.25;4.85;;;;;;;19.35;36.13;99622.13;7710557;32;40824;-86
2023/04/29 11:42:07;;;;;;;11.40;4.97;;;;;;;19.39;35.82;99628.59;7710678;32;38949;-84
2023/04/29 11:46:23;;;;;;;11.32;4.53;;;;;;;19.35;33.77;99613.84;7716759;32;37123;-84
2023/04/29 11:50:41;;;;;;;9.13;5.10;;;;;;;19.33;37.08;99616.09;7737250;32;40013;-83
2023/04/29 11:54:59;;;;;;;7.90;4.35;;;;;;;19.30;36.00;99611.25;7711394;32;39750;-83
2023/04/29 11:59:17;;;;;;;8.48;4.97;;;;;;;19.27;37.03;99620.22;7713898;32;37938;-83
2023/04/29 12:03:35;;;;;;;8.48;4.50;;;;;;;18.95;36.30;99628.00;7735487;32;37587;-80
2023/04/29 12:07:53;;;;;;;10.30;5.03;;;;;;;19.50;36.64;99632.56;7735359;32;39271;-81
2023/04/29 12:12:10;;;;;;;8.85;4.37;;;;;;;19.30;34.71;99636.13;7735916;32;40117;-82
2023/04/29 12:16:28;;;;;;;10.07;4.75;;;;;;;19.47;36.47;99637.97;7736165;32;38691;-81
2023/04/29 12:20:47;;;;;;;8.88;5.00;;;;;;;19.24;36.74;99634.69;7729812;32;37962;-80
2023/04/29 12:25:06;;;;;;;10.30;4.30;;;;;;;19.53;36.16;99622.81;7711660;32;40150;-82
2023/04/29 12:29:23;;;;;;;9.43;4.93;;;;;;;20.10;35.82;99609.53;7733860;32;40230;-80
2023/04/29 12:33:41;;;;;;;10.18;5.40;;;;;;;19.98;35.93;99607.50;7717608;32;37947;-79
2023/04/29 12:37:58;;;;;;;10.23;4.50;;;;;;;20.98;35.76;99593.56;7730355;32;36730;-79
2023/04/29 12:42:15;;;;;;;8.13;4.57;;;;;;;21.75;32.85;99593.56;7731369;32;40249;-80
2023/04/29 12:46:40;;;;;;;7.87;4.32;;;;;;;22.49;31.51;99590.47;7709600;32;40987;-81
2023/04/29 12:50:59;;;;;;;7.82;4.22;;;;;;;22.09;31.90;99569.16;7711538;32;37902;-79
2023/04/29 12:55:17;;;;;;;9.60;4.18;;;;;;;23.30;32.04;99563.44;7712855;32;37634;-81
2023/04/29 12:59:36;;;;;;;10.52;4.43;;;;;;;24.05;31.20;99553.09;7734427;32;39433;-80
2023/04/29 13:03:53;;;;;;;8.52;4.40;;;;;;;23.93;28.13;99549.28;7734038;32;40140;-81
2023/04/29 13:08:10;;;;;;;9.63;4.25;;;;;;;23.94;27.76;99550.91;7735990;32;37673;-81
2023/04/29 13:12:26;;;;;;;8.93;3.90;;;;;;;24.13;26.48;99538.94;7732952;32;37034;-83
2023/04/29 13:16:43;;;;;;;9.60;4.15;;;;;;;24.93;27.66;99529.94;7737651;32;39292;-82
2023/04/29 13:20:59;;;;;;;7.78;4.12;;;;;;;24.87;26.36;99532.25;7723872;32;161643;-82
2023/04/29 13:25:17;;;;;;;11.18;4.40;;;;;;;24.96;27.92;99529.19;7728898;32;38154;-81
2023/04/29 13:29:33;;;;;;;7.80;4.18;;;;;;;25.56;25.28;99527.63;7737758;32;37661;-83
2023/04/29 13:33:51;;;;;;;9.10;4.03;;;;;;;25.94;26.33;99520.09;7737950;32;39352;-82
2023/04/29 13:38:09;;;;;;;7.22;3.95;;;;;;;25.93;26.19;99524.09;7738644;32;40003;-82
2023/04/29 13:42:25;;;;;;;7.68;3.97;;;;;;;26.43;25.79;99505.84;7738924;32;37883;-83
2023/04/29 13:46:42;;;;;;;9.68;4.32;;;;;;;26.60;23.30;99512.75;7738958;32;37918;-83
2023/04/29 13:51:00;;;;;;;9.00;3.97;;;;;;;26.00;23.18;99508.22;7739062;32;39120;-82
2023/04/29 13:55:19;;;;;;;9.60;3.95;;;;;;;25.90;24.65;99494.12;7737643;32;40194;-81
2023/04/29 13:59:39;;;;;;;6.15;3.47;;;;;;;25.12;26.28;99492.75;7738708;32;38301;-83
2023/04/29 14:04:07;;;;;;;7.78;3.90;;;;;;;24.56;26.18;99491.56;7738901;32;35604;-82
2023/04/29 14:08:24;;;;;;;8.82;3.80;;;;;;;24.23;27.82;99504.09;7738683;32;39464;-81
2023/04/29 14:12:40;;;;;;;6.95;3.78;;;;;;;23.84;27.59;99515.31;7738537;32;39972;-80
2023/04/29 14:16:56;;;;;;;11.73;5.32;;;;;;;23.37;29.13;99513.53;7738462;32;37842;-80
2023/04/29 14:21:13;;;;;;;10.57;6.37;;;;;;;23.05;28.41;99511.66;7738187;32;36955;-81
2023/04/29 14:25:29;;;;;;;9.07;5.80;;;;;;;22.52;30.00;99516.72;7736962;32;39530;-80
2023/04/29 14:29:48;;;;;;;64.18;26.52;;;;;;;22.29;31.13;99514.56;7738437;32;40873;-79
2023/04/29 14:34:05;;;;;;;12.48;6.72;;;;;;;22.10;31.58;99509.69;7738231;32;38766;-80
2023/04/29 14:38:21;;;;;;;15.98;6.90;;;;;;;22.08;31.97;99511.22;7736600;32;37722;-82
2023/04/29 14:42:38;;;;;;;9.82;5.15;;;;;;;21.50;31.80;99512.41;7737791;32;39792;-80
2023/04/29 14:46:54;;;;;;;8.98;4.97;;;;;;;21.44;33.29;99521.28;7738162;32;39999;-81
2023/04/29 14:51:10;;;;;;;12.15;5.37;;;;;;;21.11;33.41;99525.06;7738036;32;37861;-80
2023/04/29 14:55:27;;;;;;;12.18;4.97;;;;;;;20.97;33.23;99517.12;7737503;32;37210;-81
2023/04/29 14:59:46;;;;;;;8.63;3.85;;;;;;;20.67;33.58;99508.28;7711749;32;39472;-81
2023/04/29 15:04:03;;;;;;;7.00;3.83;;;;;;;20.39;36.21;99523.56;7711108;32;40828;-82
2023/04/29 15:08:19;;;;;;;7.75;3.65;;;;;;;20.47;37.60;99518.25;7727311;32;38688;-80
2023/04/29 15:12:35;;;;;;;7.37;3.70;;;;;;;20.37;37.44;99522.28;7738009;32;36868;-81
2023/04/29 15:16:52;;;;;;;7.45;4.22;;;;;;;20.16;37.48;99525.97;7734965;32;39085;-82
2023/04/29 15:21:08;;;;;;;7.45;3.65;;;;;;;20.34;37.64;99522.97;7735604;32;40023;-82
2023/04/29 15:25:25;;;;;;;10.02;3.65;;;;;;;20.31;37.04;99516.16;7736363;32;36907;-82
2023/04/29 15:29:42;;;;;;;9.18;3.53;;;;;;;20.21;36.71;99511.91;7734330;32;35349;-81
2023/04/29 15:33:58;;;;;;;11.07;3.97;;;;;;;20.13;36.93;99514.75;7731149;32;39279;-80
2023/04/29 15:38:15;;;;;;;7.87;4.03;;;;;;;20.16;36.60;99509.34;7732191;32;39965;-82
2023/04/29 15:42:31;;;;;;;7.10;3.80;;;;;;;20.13;37.34;99510.03;7735399;32;38769;-81
2023/04/29 15:46:47;;;;;;;10.32;3.85;;;;;;;20.00;36.87;99500.06;7734854;32;36989;-82
2023/04/29 15:51:03;;;;;;;9.13;3.95;;;;;;;20.22;36.55;99501.62;7736630;32;40195;-82
2023/04/29 15:55:21;;;;;;;8.80;3.58;;;;;;;20.01;37.83;99501.72;7735791;32;39994;-80
2023/04/29 15:59:37;;;;;;;7.35;3.67;;;;;;;20.06;38.35;99504.25;7736093;32;38017;-79
2023/04/29 16:03:53;;;;;;;10.52;4.57;;;;;;;20.02;38.06;99506.06;7736574;32;37009;-80
2023/04/29 16:08:09;;;;;;;8.68;4.43;;;;;;;19.84;38.17;99502.69;7735451;32;39874;-70
2023/04/29 16:12:26;;;;;;;7.15;3.90;;;;;;;20.12;38.86;99494.56;7736794;32;40014;-69
2023/04/29 16:16:42;;;;;;;7.55;3.30;;;;;;;20.24;36.90;99483.50;7733941;32;38595;-73
2023/04/29 16:20:58;;;;;;;7.10;3.92;;;;;;;20.57;37.46;99490.91;7734281;32;37821;-71
2023/04/29 16:25:15;;;;;;;7.72;4.37;;;;;;;20.82;35.14;99477.09;7732963;32;39376;-72
2023/04/29 16:29:31;;;;;;;8.75;4.10;;;;;;;21.02;34.41;99480.84;7731898;32;41662;-69
2023/04/29 16:33:48;;;;;;;9.60;3.87;;;;;;;21.16;34.57;99483.25;7733232;32;37985;-70
2023/04/29 16:38:04;;;;;;;9.00;4.18;;;;;;;21.17;34.75;99484.88;7730946;32;36967;-69
2023/04/29 16:42:20;;;;;;;11.73;4.35;;;;;;;21.28;33.41;99480.44;7731711;32;38853;-72
2023/04/29 16:46:37;;;;;;;8.88;4.72;;;;;;;21.17;33.23;99476.56;7729599;32;40910;-69
2023/04/29 16:50:53;;;;;;;7.40;3.80;;;;;;;21.14;33.17;99480.03;7735483;32;38135;-69
2023/04/29 16:55:13;;;;;;;10.55;3.80;;;;;;;20.93;34.09;99492.06;7735536;32;37651;-83
2023/04/29 16:59:29;;;;;;;11.05;4.20;;;;;;;20.88;34.51;99489.53;7725044;32;40086;-85
2023/04/29 17:03:46;;;;;;;7.53;3.75;;;;;;;20.80;34.80;99496.03;7708322;32;39862;-84
2023/04/29 17:08:03;;;;;;;8.15;3.90;;;;;;;20.86;34.89;99500.16;7709766;32;36049;-81
2023/04/29 17:12:19;;;;;;;7.53;4.37;;;;;;;20.71;35.24;99504.44;7711993;32;38671;-83
2023/04/29 17:16:35;;;;;;;12.45;4.45;;;;;;;20.37;36.15;99506.50;7712393;32;39283;-83
2023/04/29 17:20:52;;;;;;;9.20;4.62;;;;;;;20.14;36.70;99500.56;7711971;32;39720;-83
2023/04/29 17:25:09;;;;;;;8.95;4.78;;;;;;;19.64;37.65;99493.25;7712312;32;38582;-82
2023/04/29 17:29:25;;;;;;;9.95;4.70;;;;;;;19.52;37.89;99505.87;7734789;32;37851;-84
2023/04/29 17:33:53;;;;;;;9.30;4.50;;;;;;;19.18;38.48;99506.97;7737876;32;38980;-82
2023/04/29 17:38:10;;;;;;;8.88;4.22;;;;;;;19.11;38.37;99510.28;7713636;32;40009;-83
2023/04/29 17:42:27;;;;;;;7.47;3.65;;;;;;;18.90;38.94;99518.53;7729085;32;38796;-82
2023/04/29 17:46:45;;;;;;;6.40;3.40;;;;;;;18.70;39.47;99517.31;7749414;32;36960;-80
2023/04/29 17:51:01;;;;;;;8.68;3.80;;;;;;;18.33;39.82;99525.28;7751845;32;40076;-84
2023/04/29 17:55:19;;;;;;;8.15;4.15;;;;;;;18.16;40.49;99519.78;7745427;32;40730;-83
2023/04/29 17:59:36;;;;;;;7.85;3.87;;;;;;;18.00;40.80;99527.78;7710474;32;39148;-83
2023/04/29 18:03:53;;;;;;;7.50;4.37;;;;;;;17.80;40.95;99532.03;7711418;32;37072;-83
2023/04/29 18:08:10;;;;;;;7.70;4.00;;;;;;;17.61;41.40;99535.13;7716423;32;39313;-83
2023/04/29 18:12:27;;;;;;;7.75;4.32;;;;;;;17.40;41.73;99537.69;7733983;32;40009;-81
2023/04/29 18:16:43;;;;;;;8.23;4.30;;;;;;;17.44;41.42;99549.72;7715562;32;38707;-82
2023/04/29 18:21:00;;;;;;;8.60;4.05;;;;;;;17.12;42.31;99548.22;7734815;32;37018;-84
2023/04/29 18:25:18;;;;;;;9.77;4.30;;;;;;;17.13;42.54;99545.16;7736432;32;39022;-83
2023/04/29 18:29:34;;;;;;;12.43;4.62;;;;;;;17.19;42.43;99549.34;7723181;32;40778;-83
2023/04/29 18:33:51;;;;;;;7.47;4.15;;;;;;;16.72;43.95;99562.81;7717356;32;38815;-82
2023/04/29 18:38:12;;;;;;;14.35;8.52;;;;;;;16.69;44.33;99577.22;7720405;32;37731;-82
2023/04/29 18:42:31;;;;;;;11.60;4.80;;;;;;;16.71;44.17;99583.19;7719971;32;39240;-83
2023/04/29 18:46:48;;;;;;;7.28;4.82;;;;;;;16.74;44.54;99587.28;7728671;32;40747;-84
2023/04/29 18:51:06;;;;;;;10.57;5.55;;;;;;;16.72;44.80;99587.59;7716547;32;38959;-83
2023/04/29 18:55:24;;;;;;;10.13;6.28;;;;;;;16.48;46.33;99586.00;7725978;32;37128;-83
2023/04/29 18:59:40;;;;;;;13.32;6.35;;;;;;;16.56;46.44;99587.19;7724774;32;39370;-82
2023/04/29 19:03:57;;;;;;;8.80;4.80;;;;;;;16.65;46.47;99590.00;7727198;32;40825;-82
2023/04/29 19:08:17;;;;;;;9.57;4.62;;;;;;;16.38;47.18;99589.03;7727268;32;38721;-83
2023/04/29 19:12:34;;;;;;;8.65;4.93;;;;;;;16.32;47.09;99593.06;7716263;32;36823;-83
2023/04/29 19:16:50;;;;;;;10.23;5.43;;;;;;;16.42;45.67;99597.47;7725118;32;39264;-83
2023/04/29 19:21:07;;;;;;;9.07;5.05;;;;;;;16.28;46.61;99595.63;7724592;32;38640;-82
2023/04/29 19:25:24;;;;;;;8.52;4.72;;;;;;;16.38;47.06;99602.78;7726951;32;37906;-83
2023/04/29 19:29:41;;;;;;;10.73;5.18;;;;;;;16.21;47.53;99608.19;7717308;32;37163;-79
2023/04/29 19:33:59;;;;;;;10.75;5.30;;;;;;;16.01;47.80;99604.84;7729144;32;40080;-79
2023/04/29 19:38:16;;;;;;;8.00;4.82;;;;;;;16.04;47.19;99617.12;7714129;32;40049;-79
2023/04/29 19:42:33;;;;;;;6.80;4.47;;;;;;;15.98;47.84;99610.94;7718898;32;37851;-80
2023/04/29 19:46:51;;;;;;;9.52;5.60;;;;;;;15.86;48.03;99614.25;7727378;32;37795;-79
2023/04/29 19:51:09;;;;;;;11.12;5.55;;;;;;;15.83;47.56;99614.06;7723395;32;40248;-79
2023/04/29 19:55:27;;;;;;;8.35;4.70;;;;;;;15.72;48.07;99613.47;7714426;32;38606;-79
2023/04/29 19:59:44;;;;;;;11.73;6.12;;;;;;;15.83;47.50;99614.06;7709177;32;38305;-80
2023/04/29 20:04:01;;;;;;;8.45;5.32;;;;;;;15.65;47.70;99613.09;7714983;32;37148;-80
2023/04/29 20:08:18;;;;;;;9.20;5.85;;;;;;;15.25;48.58;99623.88;7717564;32;39313;-79
2023/04/29 20:12:35;;;;;;;10.38;5.43;;;;;;;15.25;48.55;99621.91;7722263;32;40916;-79